Time;durP1;ratioP1;P1;durP2;ratioP2;P2;SDS_P1;SDS_P2;PMS_P1;PMS_P2;Temp;Humidity;BMP_temperature;BMP_pressure;BME280_temperature;BME280_humidity;BME280_pressure;Samples;Min_cycle;Max_cycle;Signal;HPM_P1;HPM_P2
2022/04/02 00:01:21;;;;;;;3.08;1.50;;;;;;;2.28;72.91;101809.41;5104530;28;20040;-77
2022/04/02 00:03:46;;;;;;;2.35;1.67;;;;;;;2.28;73.22;101818.00;5096818;28;20036;-77
2022/04/02 00:06:14;;;;;;;3.38;1.80;;;;;;;2.27;73.18;101805.06;5096285;28;20044;-77
2022/04/02 00:08:40;;;;;;;5.03;1.80;;;;;;;2.27;73.45;101808.53;5096639;28;20052;-77
2022/04/02 00:11:05;;;;;;;2.50;1.80;;;;;;;2.30;73.42;101805.09;5078511;28;20036;-77
2022/04/02 00:13:31;;;;;;;5.50;1.80;;;;;;;2.32;73.24;101799.97;5095709;28;20036;-77
2022/04/02 00:15:57;;;;;;;9.43;2.97;;;;;;;2.33;73.12;101801.66;5097107;28;20055;-77
2022/04/02 00:18:23;;;;;;;4.10;2.72;;;;;;;2.29;73.28;101795.59;5095721;28;20347;-77
2022/04/02 00:20:48;;;;;;;4.70;2.53;;;;;;;2.27;73.23;101793.03;5104492;28;20054;-77
2022/04/02 00:25:57;;;;;;;7.88;2.40;;;;;;;2.34;72.65;101803.41;5096661;28;20071;-77
2022/04/02 00:28:23;;;;;;;3.58;2.03;;;;;;;2.35;72.80;101805.13;5078162;28;20394;-77
2022/04/02 00:30:48;;;;;;;5.80;1.88;;;;;;;2.34;72.79;101800.84;5095454;28;20385;-77
2022/04/02 00:33:14;;;;;;;2.75;2.20;;;;;;;2.33;72.63;101796.50;5078373;28;20035;-77
2022/04/02 00:35:39;;;;;;;5.78;2.20;;;;;;;2.31;72.93;101799.09;5059518;28;20115;-77
2022/04/02 00:38:05;;;;;;;5.45;2.22;;;;;;;2.32;72.80;101805.97;5096089;28;20044;-77
2022/04/02 00:40:31;;;;;;;3.58;1.80;;;;;;;2.25;73.40;101799.03;5095777;28;20024;-77
2022/04/02 00:42:56;;;;;;;3.17;1.70;;;;;;;2.29;73.20;101795.59;5078863;28;20218;-77
2022/04/02 00:45:21;;;;;;;3.10;1.88;;;;;;;2.28;73.56;101799.91;5077768;28;20247;-77
2022/04/02 00:47:47;;;;;;;6.05;1.60;;;;;;;2.28;73.92;101804.22;5078474;28;20028;-77
2022/04/02 00:50:12;;;;;;;3.65;1.60;;;;;;;2.29;74.24;101806.84;5105042;28;20040;-77
2022/04/02 00:52:41;;;;;;;2.80;1.50;;;;;;;2.32;74.56;101799.97;5118954;28;20048;-77
2022/04/02 00:55:07;;;;;;;2.88;1.67;;;;;;;2.40;74.25;101803.47;5092429;28;20232;-77
2022/04/02 00:57:34;;;;;;;1.50;1.20;;;;;;;2.40;74.15;101804.34;5109593;28;20039;-77
2022/04/02 01:00:00;;;;;;;5.30;2.17;;;;;;;2.42;74.30;101800.06;5134916;28;20031;-77
2022/04/02 01:02:26;;;;;;;2.83;1.83;;;;;;;2.45;74.13;101799.19;5118116;28;20036;-77
2022/04/02 01:04:54;;;;;;;1.83;1.60;;;;;;;2.46;74.03;101806.13;5091864;28;20043;-77
2022/04/02 01:07:21;;;;;;;2.92;1.40;;;;;;;2.45;74.30;101810.41;5118605;28;20208;-77
2022/04/02 01:09:46;;;;;;;5.10;1.85;;;;;;;2.47;73.91;101800.06;5100504;28;20357;-77
2022/04/02 01:12:12;;;;;;;2.22;1.45;;;;;;;2.48;74.08;101800.09;5108877;28;20020;-77
2022/04/02 01:14:37;;;;;;;4.93;1.50;;;;;;;2.55;73.76;101802.72;5078067;28;20050;-77
2022/04/02 01:17:04;;;;;;;2.80;1.90;;;;;;;2.56;73.84;101807.03;5085038;28;21123;-77
2022/04/02 01:19:30;;;;;;;4.72;1.60;;;;;;;2.52;74.10;101805.28;5116195;28;20023;-77
2022/04/02 01:21:55;;;;;;;7.38;1.75;;;;;;;2.49;74.43;101803.53;5103589;28;20108;-77
2022/04/02 01:24:21;;;;;;;2.33;1.50;;;;;;;2.51;74.55;101807.03;5104450;28;20058;-77
2022/04/02 01:26:47;;;;;;;5.45;1.40;;;;;;;2.51;74.56;101809.59;5124754;28;20042;-77
2022/04/02 01:29:12;;;;;;;6.13;2.38;;;;;;;2.50;74.62;101805.28;5124388;28;20350;-77
2022/04/02 01:31:42;;;;;;;4.18;2.00;;;;;;;2.49;74.53;101807.00;5090916;28;20045;-77
2022/04/02 01:34:08;;;;;;;5.82;1.58;;;;;;;2.56;74.81;101809.63;5097090;28;20073;-77
2022/04/02 01:36:33;;;;;;;2.92;1.80;;;;;;;2.47;75.23;101803.53;5079470;28;20044;-77
2022/04/02 01:38:58;;;;;;;6.85;2.30;;;;;;;2.48;75.34;101801.81;5095574;28;20043;-77
2022/04/02 01:41:24;;;;;;;1.90;1.55;;;;;;;2.52;75.23;101807.88;5085078;28;20129;-77
2022/04/02 01:43:49;;;;;;;3.88;1.70;;;;;;;2.50;75.33;101818.22;5099764;28;20040;-77
2022/04/02 01:46:15;;;;;;;2.88;2.00;;;;;;;2.55;75.40;101802.72;5077371;28;20043;-77
2022/04/02 01:48:40;;;;;;;3.72;1.90;;;;;;;2.54;75.12;101811.34;5125235;27;20042;-77
2022/04/02 01:51:06;;;;;;;6.63;1.92;;;;;;;2.50;75.17;101808.72;5070628;28;20059;-77
2022/04/02 01:53:32;;;;;;;4.45;1.90;;;;;;;2.50;75.38;101810.44;5088469;28;20035;-77
2022/04/02 01:55:58;;;;;;;5.82;1.80;;;;;;;2.42;75.10;101818.16;5071576;28;20032;-77
2022/04/02 01:58:24;;;;;;;5.60;1.60;;;;;;;2.44;75.25;101815.59;5098896;28;21880;-77
2022/04/02 02:00:49;;;;;;;3.38;1.90;;;;;;;2.46;75.00;101809.56;5093435;28;20362;-77
2022/04/02 02:03:15;;;;;;;2.28;1.70;;;;;;;2.42;75.13;101817.25;5066338;28;20020;-77
2022/04/02 02:05:41;;;;;;;5.03;1.75;;;;;;;2.45;75.16;101822.47;5064595;28;20074;-77
2022/04/02 02:08:07;;;;;;;6.88;2.45;;;;;;;2.40;75.03;101819.84;5099930;28;20039;-77
2022/04/02 02:10:32;;;;;;;7.88;2.28;;;;;;;2.39;75.21;101817.25;5080390;28;20261;-77
2022/04/02 02:12:59;;;;;;;3.83;1.85;;;;;;;2.43;75.11;101816.41;5048270;28;20040;-77
2022/04/02 02:15:25;;;;;;;5.80;2.05;;;;;;;2.43;75.12;101809.53;5094614;28;20128;-77
2022/04/02 02:17:52;;;;;;;3.63;2.10;;;;;;;2.45;74.73;101810.41;5098221;28;20042;-77
2022/04/02 02:20:18;;;;;;;3.65;2.00;;;;;;;2.44;75.05;101807.81;5049557;28;20028;-77
2022/04/02 02:22:45;;;;;;;5.60;2.35;;;;;;;2.43;74.80;101819.00;5091520;28;20082;-77
2022/04/02 02:25:13;;;;;;;5.07;2.08;;;;;;;2.42;74.87;101822.44;5106401;28;20083;-77
2022/04/02 02:27:40;;;;;;;2.55;1.90;;;;;;;2.40;74.67;101817.28;5102431;28;20051;-77
2022/04/02 02:30:07;;;;;;;3.00;2.28;;;;;;;2.41;74.83;101824.16;5063600;28;20028;-77
2022/04/02 02:32:36;;;;;;;5.68;2.30;;;;;;;2.41;74.90;101824.16;5093785;28;20035;-77
2022/04/02 02:38:09;;;;;;;3.75;1.95;;;;;;;2.39;75.06;101831.03;5074651;28;20048;-77
2022/04/02 02:40:36;;;;;;;4.50;2.40;;;;;;;2.39;75.07;101827.59;5069151;28;20082;-77
2022/04/02 02:43:03;;;;;;;4.95;2.40;;;;;;;2.32;75.66;101825.81;5087329;28;20024;-78
2022/04/02 02:45:28;;;;;;;3.40;2.72;;;;;;;2.29;75.72;101837.84;5100684;28;20027;-78
2022/04/02 02:47:54;;;;;;;6.38;2.40;;;;;;;2.29;75.83;101831.78;5105646;28;20099;-78
2022/04/02 02:50:21;;;;;;;3.80;2.30;;;;;;;2.29;75.93;101831.78;5119652;28;20051;-78
2022/04/02 02:52:46;;;;;;;4.15;2.85;;;;;;;2.27;75.95;101838.66;5092970;28;20212;-78
2022/04/02 02:55:15;;;;;;;6.60;2.50;;;;;;;2.24;76.04;101836.94;5121590;28;20032;-78
2022/04/02 02:57:42;;;;;;;3.90;2.10;;;;;;;2.23;75.66;101836.91;5088677;28;20062;-78
2022/04/02 03:00:09;;;;;;;5.50;2.47;;;;;;;2.24;75.87;101844.69;5087706;28;20024;-78
2022/04/02 03:02:37;;;;;;;4.50;2.53;;;;;;;2.27;75.80;101838.66;5106406;28;20031;-78
2022/04/02 03:05:06;;;;;;;6.75;2.00;;;;;;;2.24;76.01;101830.91;5106136;28;20036;-78
2022/04/02 03:07:48;;;;;;;4.45;2.00;;;;;;;2.21;75.75;101834.31;5087752;28;20082;-78
2022/04/02 03:10:17;;;;;;;2.55;2.05;;;;;;;2.22;75.70;101830.00;5106175;28;20092;-78
2022/04/02 03:12:42;;;;;;;2.88;2.05;;;;;;;2.24;75.68;101828.31;5072152;28;20435;-78
2022/04/02 03:15:08;;;;;;;2.30;2.10;;;;;;;2.19;75.67;101832.59;5106072;28;20034;-78
2022/04/02 03:17:34;;;;;;;4.28;1.90;;;;;;;2.21;76.08;101833.47;5088485;28;20364;-78
2022/04/02 03:20:00;;;;;;;3.33;1.80;;;;;;;2.26;75.77;101839.53;5089808;28;20062;-78
2022/04/02 03:22:26;;;;;;;2.83;1.92;;;;;;;2.23;75.93;101832.59;5106744;28;20232;-78
2022/04/02 03:24:52;;;;;;;2.72;2.45;;;;;;;2.29;75.77;101836.97;5104092;28;20041;-78
2022/04/02 03:27:18;;;;;;;3.53;2.08;;;;;;;2.30;75.68;101838.72;5097372;28;20032;-78
2022/04/02 03:29:43;;;;;;;2.85;2.10;;;;;;;2.30;75.83;101836.13;5088021;28;20044;-78
2022/04/02 03:32:10;;;;;;;3.05;1.80;;;;;;;2.31;75.80;101840.47;5100038;28;20042;-78
2022/04/02 03:34:35;;;;;;;5.07;1.75;;;;;;;2.35;75.60;101841.31;5079002;28;20327;-78
2022/04/02 03:37:00;;;;;;;3.75;1.85;;;;;;;2.30;75.80;101842.16;5087947;28;20040;-78
2022/04/02 03:39:26;;;;;;;1.70;1.60;;;;;;;2.31;76.06;101837.88;5094766;28;20036;-79
2022/04/02 03:41:54;;;;;;;3.08;2.00;;;;;;;2.31;76.05;101837.88;5098062;28;20059;-78
2022/04/02 03:44:19;;;;;;;2.75;2.00;;;;;;;2.32;76.08;101837.00;5089911;28;20032;-78
2022/04/02 03:49:29;;;;;;;3.17;2.17;;;;;;;2.27;76.26;101847.31;5093462;28;20055;-78
2022/04/02 03:51:55;;;;;;;2.33;2.05;;;;;;;2.32;76.21;101849.94;5105340;28;20031;-78
2022/04/02 03:54:21;;;;;;;2.45;1.90;;;;;;;2.34;76.32;101845.63;5103446;28;20027;-78
2022/04/02 03:56:46;;;;;;;5.50;2.65;;;;;;;2.34;76.30;101839.59;5109172;28;20027;-78
2022/04/02 03:59:12;;;;;;;2.63;2.42;;;;;;;2.36;76.22;101848.25;5128078;28;20224;-78
2022/04/02 04:01:38;;;;;;;2.95;1.90;;;;;;;2.34;76.22;101848.22;5109064;28;20246;-78
2022/04/02 04:04:04;;;;;;;2.70;2.17;;;;;;;2.34;76.25;101845.63;5126468;28;20023;-78
2022/04/02 04:06:31;;;;;;;2.30;2.05;;;;;;;2.36;76.19;101856.84;5129231;27;20053;-78
2022/04/02 04:08:58;;;;;;;2.08;1.88;;;;;;;2.33;76.21;101851.69;5103411;27;20041;-78
2022/04/02 04:11:25;;;;;;;3.70;1.77;;;;;;;2.34;76.19;101860.28;5118709;27;20035;-78
2022/04/02 04:13:50;;;;;;;4.72;2.30;;;;;;;2.30;76.60;101856.81;5112981;28;20114;-78
2022/04/02 04:16:16;;;;;;;3.90;2.28;;;;;;;2.30;76.46;101864.56;5076582;28;20031;-79
2022/04/02 04:18:41;;;;;;;3.10;1.90;;;;;;;2.31;76.43;101866.31;5128973;27;20043;-78
2022/04/02 04:21:06;;;;;;;2.90;1.90;;;;;;;2.35;76.46;101869.75;5083099;28;20032;-78
2022/04/02 04:23:34;;;;;;;2.97;1.85;;;;;;;2.37;76.17;101874.13;5114833;28;20035;-78
2022/04/02 04:26:00;;;;;;;3.15;1.77;;;;;;;2.38;76.14;101869.81;5126508;27;20072;-78
2022/04/02 04:28:25;;;;;;;1.70;1.48;;;;;;;2.40;75.94;101878.44;5128021;27;20056;-78
2022/04/02 04:30:51;;;;;;;2.10;1.90;;;;;;;2.40;75.96;101881.03;5113806;28;20244;-78
2022/04/02 04:33:16;;;;;;;4.50;2.45;;;;;;;2.37;75.82;101881.00;5115486;27;20134;-78
2022/04/02 04:35:41;;;;;;;2.85;1.67;;;;;;;2.40;75.82;101881.91;5110235;28;20104;-78
2022/04/02 04:38:07;;;;;;;3.78;2.25;;;;;;;2.42;75.82;101877.63;5126505;27;20247;-78
2022/04/02 04:40:32;;;;;;;2.00;1.80;;;;;;;2.44;75.85;101877.63;5105795;28;20035;-78
2022/04/02 04:42:58;;;;;;;1.92;1.75;;;;;;;2.45;75.67;101880.22;5141191;27;20072;-78
2022/04/02 04:45:23;;;;;;;4.90;2.10;;;;;;;2.45;75.65;101880.22;5106054;28;20039;-78
2022/04/02 04:47:49;;;;;;;2.95;1.98;;;;;;;2.45;75.60;101882.78;5095843;28;20040;-78
2022/04/02 04:50:14;;;;;;;6.65;2.10;;;;;;;2.44;75.53;101888.84;5127853;28;20406;-78
2022/04/02 04:52:40;;;;;;;3.78;2.05;;;;;;;2.44;75.58;101894.00;5111860;28;20073;-78
2022/04/02 04:55:06;;;;;;;3.45;1.88;;;;;;;2.43;75.68;101902.59;5126763;28;20034;-78
2022/04/02 04:57:31;;;;;;;2.03;1.83;;;;;;;2.41;75.49;101893.97;5106331;28;20228;-78
2022/04/02 04:59:57;;;;;;;3.25;1.90;;;;;;;2.43;75.44;101901.75;5086936;28;20062;-79
2022/04/02 05:02:22;;;;;;;1.63;1.50;;;;;;;2.43;75.45;101904.31;5107455;28;20044;-78
2022/04/02 05:04:49;;;;;;;2.63;1.60;;;;;;;2.45;75.74;101905.22;5127065;28;20307;-78
2022/04/02 05:07:15;;;;;;;2.03;1.92;;;;;;;2.47;75.61;101906.97;5092906;28;20028;-78
2022/04/02 05:09:42;;;;;;;1.45;1.35;;;;;;;2.47;75.32;101901.81;5104745;28;20239;-78
2022/04/02 05:12:08;;;;;;;3.50;2.17;;;;;;;2.44;75.27;101906.94;5128144;27;20065;-78
2022/04/02 05:14:35;;;;;;;2.78;2.00;;;;;;;2.41;75.29;101912.06;5122739;28;20031;-78
2022/04/02 05:17:00;;;;;;;2.83;2.08;;;;;;;2.40;75.10;101915.53;5124611;28;20035;-78
2022/04/02 05:19:26;;;;;;;4.68;2.47;;;;;;;2.37;75.45;101907.72;5104778;28;20124;-78
2022/04/02 05:21:51;;;;;;;3.45;2.25;;;;;;;2.33;75.53;101911.13;5107357;27;20035;-78
2022/04/02 05:24:19;;;;;;;3.97;2.28;;;;;;;2.32;75.35;101918.88;5116414;28;20035;-78
2022/04/02 05:26:47;;;;;;;5.45;2.15;;;;;;;2.32;75.45;101924.91;5110196;28;20047;-78
2022/04/02 05:29:13;;;;;;;4.00;2.50;;;;;;;2.29;75.44;101919.69;5108839;28;20031;-78
2022/04/02 05:31:40;;;;;;;3.70;2.30;;;;;;;2.30;75.43;101922.28;5112344;28;20272;-78
2022/04/02 05:34:06;;;;;;;2.80;2.10;;;;;;;2.28;75.63;101921.41;5127551;28;20027;-78
2022/04/02 05:36:32;;;;;;;3.03;2.20;;;;;;;2.28;75.50;101925.72;5111551;28;20552;-78
2022/04/02 05:38:58;;;;;;;2.30;2.10;;;;;;;2.29;75.39;101928.34;5127229;28;20058;-78
2022/04/02 05:41:26;;;;;;;3.38;2.30;;;;;;;2.29;75.33;101935.19;5090605;28;20100;-78
2022/04/02 05:43:52;;;;;;;3.10;2.17;;;;;;;2.26;75.47;101943.78;5133348;27;20406;-78
2022/04/02 05:46:18;;;;;;;2.10;1.90;;;;;;;2.28;75.46;101936.06;5096572;28;20028;-78
2022/04/02 05:48:43;;;;;;;2.45;2.25;;;;;;;2.18;75.75;101947.13;5108926;28;20031;-78
2022/04/02 05:51:09;;;;;;;3.67;2.40;;;;;;;2.21;75.86;101944.59;5128155;27;20039;-78
2022/04/02 05:53:35;;;;;;;4.47;2.60;;;;;;;2.20;75.84;101950.59;5127250;28;20023;-78
2022/04/02 05:56:02;;;;;;;2.90;2.22;;;;;;;2.15;75.86;101941.91;5129414;27;20327;-78
2022/04/02 05:58:27;;;;;;;2.60;1.90;;;;;;;2.18;75.54;101947.13;5126482;28;20023;-78
2022/04/02 06:00:53;;;;;;;4.00;1.83;;;;;;;2.20;75.84;101956.66;5128473;27;20080;-78
2022/04/02 06:03:20;;;;;;;2.85;2.00;;;;;;;2.22;75.59;101959.25;5091181;28;20015;-78
2022/04/02 06:05:48;;;;;;;2.30;1.58;;;;;;;2.22;75.64;101962.72;5113575;27;20106;-79
2022/04/02 06:08:14;;;;;;;2.28;2.08;;;;;;;2.22;75.54;101964.41;5127356;27;20023;-78
2022/04/02 06:10:39;;;;;;;6.95;3.15;;;;;;;2.20;75.31;101961.84;5127127;27;20038;-79
2022/04/02 06:13:05;;;;;;;4.25;2.35;;;;;;;2.15;75.14;101966.06;5108655;28;20035;-78
2022/04/02 06:15:30;;;;;;;2.83;2.38;;;;;;;2.15;75.44;101971.25;5091589;27;20027;-78
2022/04/02 06:17:55;;;;;;;5.18;3.05;;;;;;;2.15;75.25;101976.41;5079979;28;20046;-78
2022/04/02 06:20:23;;;;;;;3.70;2.75;;;;;;;2.07;75.46;101981.50;5108661;28;20053;-78
2022/04/02 06:22:49;;;;;;;2.83;2.08;;;;;;;2.08;75.30;101979.75;5111375;27;20050;-78
2022/04/02 06:25:14;;;;;;;2.35;2.15;;;;;;;2.08;75.40;101985.78;5109403;28;20354;-78
2022/04/02 06:27:45;;;;;;;2.53;2.22;;;;;;;2.06;75.75;101987.50;5109752;28;20039;-78
2022/04/02 06:30:12;;;;;;;4.30;2.63;;;;;;;2.06;75.98;101987.50;5133401;27;20034;-78
2022/04/02 06:32:38;;;;;;;5.05;2.65;;;;;;;2.07;75.98;101993.53;5138246;27;20039;-78
2022/04/02 06:35:04;;;;;;;3.20;2.50;;;;;;;2.04;76.17;101996.09;5083143;28;20027;-78
2022/04/02 06:37:38;;;;;;;4.43;2.47;;;;;;;2.05;76.18;101993.50;5117874;28;20043;-78
2022/04/02 06:40:05;;;;;;;4.35;2.28;;;;;;;2.06;76.02;102000.41;5108827;28;20027;-78
2022/04/02 06:42:31;;;;;;;3.08;2.15;;;;;;;2.01;75.91;102004.66;5108079;28;20335;-78
2022/04/02 06:44:56;;;;;;;2.90;2.00;;;;;;;1.97;75.57;102005.47;5091046;28;20042;-78
2022/04/02 06:47:29;;;;;;;2.85;2.38;;;;;;;2.00;75.64;102007.22;5104159;28;20043;-78
2022/04/02 06:49:55;;;;;;;8.48;2.33;;;;;;;2.01;75.65;102012.41;5103003;28;20106;-78
2022/04/02 06:52:23;;;;;;;4.72;2.22;;;;;;;2.05;75.52;102008.16;5089587;28;20043;-78
2022/04/02 06:54:49;;;;;;;5.22;2.42;;;;;;;2.09;75.44;102015.97;5131675;28;20063;-78
2022/04/02 06:57:21;;;;;;;4.18;2.20;;;;;;;2.15;75.68;102014.28;5107943;28;20046;-79
2022/04/02 06:59:46;;;;;;;5.85;2.50;;;;;;;2.08;75.64;102019.38;5097598;27;20076;-79
2022/04/02 07:02:12;;;;;;;11.38;2.45;;;;;;;2.06;75.65;102023.66;5105084;28;20042;-79
2022/04/02 07:04:37;;;;;;;8.50;2.67;;;;;;;2.09;75.76;102028.00;5129268;28;20085;-78
2022/04/02 07:07:03;;;;;;;3.45;2.13;;;;;;;2.05;75.17;102031.41;5107632;28;20050;-79
2022/04/02 07:09:28;;;;;;;7.53;2.50;;;;;;;2.10;75.44;102033.19;5105531;28;20028;-79
2022/04/02 07:11:55;;;;;;;5.00;2.20;;;;;;;2.10;75.03;102032.34;5101443;28;20046;-79
2022/04/02 07:14:20;;;;;;;6.70;2.28;;;;;;;2.10;75.14;102040.94;5101879;28;20344;-78
2022/04/02 07:16:46;;;;;;;3.55;2.20;;;;;;;2.10;74.80;102045.25;5100948;28;20038;-78
2022/04/02 07:19:12;;;;;;;6.43;2.40;;;;;;;2.12;74.77;102043.56;5096958;28;20042;-78
2022/04/02 07:21:40;;;;;;;5.47;2.40;;;;;;;2.14;74.88;102046.16;5123430;27;20043;-78
2022/04/02 07:24:06;;;;;;;4.00;2.28;;;;;;;2.18;75.08;102053.09;5109773;27;20027;-78
2022/04/02 07:26:32;;;;;;;3.90;2.15;;;;;;;2.21;74.02;102048.00;5127129;28;20035;-79
2022/04/02 07:28:59;;;;;;;6.63;2.80;;;;;;;2.28;74.29;102052.41;5135585;27;20046;-78
2022/04/02 07:31:24;;;;;;;2.53;2.20;;;;;;;2.27;74.24;102054.13;5133444;27;20058;-79
2022/04/02 07:33:50;;;;;;;4.43;2.53;;;;;;;2.29;74.34;102060.19;5128690;27;20027;-79
2022/04/02 07:36:31;;;;;;;5.10;2.63;;;;;;;2.35;74.34;102058.50;5123936;28;20039;-79
2022/04/02 07:39:04;;;;;;;4.53;2.45;;;;;;;2.39;73.89;102063.72;5135137;27;20054;-79
2022/04/02 07:41:57;;;;;;;6.65;2.33;;;;;;;2.44;74.14;102063.81;5108204;28;20099;-79
2022/04/02 07:44:25;;;;;;;7.72;2.60;;;;;;;2.48;73.72;102063.84;5121346;28;20035;-78
2022/04/02 07:46:52;;;;;;;6.22;2.50;;;;;;;2.53;73.36;102068.19;5101314;28;20027;-79
2022/04/02 07:49:23;;;;;;;5.25;2.17;;;;;;;2.59;73.73;102068.28;5113493;28;20107;-79
2022/04/02 07:51:53;;;;;;;4.15;2.45;;;;;;;2.57;72.83;102070.84;5123635;28;20027;-78
2022/04/02 07:54:23;;;;;;;3.83;2.50;;;;;;;2.59;73.17;102069.16;5123495;28;20417;-78
2022/04/02 07:56:50;;;;;;;3.92;2.33;;;;;;;2.65;73.22;102064.03;5112662;28;20046;-78
2022/04/02 07:59:38;;;;;;;4.32;2.30;;;;;;;2.70;72.45;102069.28;5083548;28;20043;-78
2022/04/02 08:02:04;;;;;;;3.78;2.00;;;;;;;2.78;71.42;102069.38;5102689;28;20197;-78
2022/04/02 08:04:30;;;;;;;4.88;2.00;;;;;;;2.84;70.58;102077.22;5113130;27;20072;-78
2022/04/02 08:06:57;;;;;;;2.85;2.13;;;;;;;2.89;70.31;102072.94;5109152;28;20027;-78
2022/04/02 08:09:25;;;;;;;5.70;2.08;;;;;;;2.94;69.22;102073.84;5127709;27;20027;-78
2022/04/02 08:11:51;;;;;;;4.97;2.00;;;;;;;2.99;68.38;102074.78;5093818;28;20039;-78
2022/04/02 08:14:22;;;;;;;4.00;1.83;;;;;;;3.05;69.15;102077.41;5130583;28;20094;-78
2022/04/02 08:16:48;;;;;;;2.40;1.80;;;;;;;3.13;69.32;102086.97;5131449;28;20075;-78
2022/04/02 08:19:16;;;;;;;3.63;1.73;;;;;;;3.20;66.59;102073.25;5108840;28;20020;-78
2022/04/02 08:21:42;;;;;;;3.85;1.40;;;;;;;3.24;65.23;102080.22;5130760;28;20043;-78
2022/04/02 08:24:08;;;;;;;1.65;1.23;;;;;;;3.22;62.30;102082.78;5088057;28;20043;-78
2022/04/02 08:27:00;;;;;;;2.53;1.15;;;;;;;3.23;61.63;102086.22;5127440;27;20035;-78
2022/04/02 08:29:47;;;;;;;2.83;0.75;;;;;;;3.21;60.16;102082.75;5111105;28;20282;-78
2022/04/02 08:32:34;;;;;;;3.65;1.17;;;;;;;3.14;60.88;102092.19;5127494;28;20031;-78
2022/04/02 08:35:05;;;;;;;5.15;1.00;;;;;;;3.05;60.89;102090.34;5112588;28;20070;-78
2022/04/02 08:37:42;;;;;;;2.80;1.20;;;;;;;3.01;61.28;102100.69;5135666;27;20047;-78
2022/04/02 08:40:42;;;;;;;1.35;0.90;;;;;;;2.97;60.60;102101.50;5120811;27;20034;-78
2022/04/02 08:43:23;;;;;;;1.58;0.90;;;;;;;2.96;56.93;102102.34;5111768;28;20388;-78
2022/04/02 08:46:09;;;;;;;5.57;1.00;;;;;;;2.93;57.51;102107.47;5119148;28;20120;-78
2022/04/02 08:48:35;;;;;;;2.33;1.30;;;;;;;2.87;56.20;102111.75;5125279;28;20374;-78
2022/04/02 08:51:22;;;;;;;2.72;1.30;;;;;;;2.86;57.59;102111.72;5105538;28;20040;-78
2022/04/02 08:53:51;;;;;;;4.50;1.33;;;;;;;2.86;57.54;102115.19;5087173;28;20036;-78
2022/04/02 08:56:29;;;;;;;1.07;0.80;;;;;;;2.86;58.36;102116.91;5117324;28;20023;-78
2022/04/02 08:59:04;;;;;;;3.08;0.98;;;;;;;2.86;57.58;102119.50;5096607;28;20028;-78
2022/04/02 09:01:56;;;;;;;1.20;1.10;;;;;;;2.85;56.93;102117.75;5106692;28;20020;-78
2022/04/02 09:05:07;;;;;;;2.80;1.08;;;;;;;2.85;57.83;102128.09;5095352;28;20096;-78
2022/04/02 09:07:39;;;;;;;1.70;1.00;;;;;;;2.85;57.87;102123.78;5102411;28;20453;-78
2022/04/02 09:10:22;;;;;;;2.70;1.10;;;;;;;2.90;58.49;102126.44;5086755;28;20070;-78
2022/04/02 09:13:06;;;;;;;2.10;1.05;;;;;;;3.00;59.43;102132.56;5100606;28;20039;-78
2022/04/02 09:15:50;;;;;;;1.77;1.25;;;;;;;3.12;59.67;102139.63;5121928;28;20189;-78
2022/04/02 09:18:49;;;;;;;1.20;1.10;;;;;;;3.23;59.38;102131.09;5104333;28;20396;-78
2022/04/02 09:21:23;;;;;;;;;;;;;;;3.32;58.34;102132.94;5097452;28;20123;-78
2022/04/02 09:24:14;;;;;;;3.35;1.20;;;;;;;3.44;57.62;102130.47;5118969;28;19927;-79
2022/04/02 09:27:05;;;;;;;3.85;1.27;;;;;;;3.55;56.23;102133.16;5124294;28;20028;-78
2022/04/02 09:29:58;;;;;;;3.55;1.00;;;;;;;3.63;55.91;102134.06;5104598;28;20035;-78
2022/04/02 09:32:33;;;;;;;1.27;0.98;;;;;;;3.67;53.35;102142.75;5092140;28;20031;-78
2022/04/02 09:35:07;;;;;;;2.03;1.40;;;;;;;3.70;52.98;102135.00;5111094;28;20044;-78
2022/04/02 09:37:32;;;;;;;2.58;1.08;;;;;;;3.73;52.84;102135.03;5102213;28;20027;-79
2022/04/02 09:40:11;;;;;;;2.28;1.15;;;;;;;3.76;52.63;102137.63;5079865;28;20042;-78
2022/04/02 09:42:38;;;;;;;0.90;0.90;;;;;;;3.81;52.76;102143.72;5091671;28;20039;-78
2022/04/02 09:45:16;;;;;;;1.73;1.30;;;;;;;3.83;53.81;102135.97;5090541;28;20028;-78
2022/04/02 09:47:51;;;;;;;3.97;1.33;;;;;;;3.87;53.60;102145.50;5082465;28;20038;-78
2022/04/02 09:50:19;;;;;;;1.38;0.90;;;;;;;3.90;53.09;102132.56;5100369;28;20058;-78
2022/04/02 09:52:48;;;;;;;2.50;1.00;;;;;;;3.90;52.48;102144.69;5086852;28;20103;-78
2022/04/02 09:55:16;;;;;;;2.90;0.88;;;;;;;3.79;51.62;102152.38;5104135;28;20023;-78
2022/04/02 09:57:44;;;;;;;2.22;1.23;;;;;;;3.73;51.90;102145.41;5119999;28;20034;-78
2022/04/02 10:00:11;;;;;;;2.87;0.90;;;;;;;3.65;51.96;102153.09;5125829;28;20296;-78
2022/04/02 10:03:01;;;;;;;1.00;0.95;;;;;;;3.67;54.73;102144.47;5085267;28;20036;-78
2022/04/02 10:05:43;;;;;;;1.00;0.90;;;;;;;3.67;55.01;102147.94;5122943;28;20024;-78
2022/04/02 10:08:29;;;;;;;3.50;1.05;;;;;;;3.78;52.90;102148.03;5119912;28;20039;-78
2022/04/02 10:10:56;;;;;;;7.50;1.55;;;;;;;3.89;54.11;102148.97;5112827;28;20032;-78
2022/04/02 10:13:22;;;;;;;1.35;1.08;;;;;;;3.84;51.89;102150.69;5120430;28;20027;-78
2022/04/02 10:15:51;;;;;;;1.70;0.95;;;;;;;3.77;52.64;102149.75;5121527;28;20062;-78
2022/04/02 10:18:20;;;;;;;1.33;1.17;;;;;;;3.78;53.05;102156.69;5125270;27;20043;-78
2022/04/02 10:20:48;;;;;;;3.38;0.90;;;;;;;3.83;53.99;102149.78;5113165;28;20058;-78
2022/04/02 10:23:21;;;;;;;2.22;1.17;;;;;;;3.89;54.45;102148.97;5131922;27;20028;-78
2022/04/02 10:26:02;;;;;;;1.20;1.08;;;;;;;3.95;55.61;102135.22;5125280;27;20031;-78
2022/04/02 10:28:30;;;;;;;7.10;1.02;;;;;;;4.03;54.26;102137.00;5099396;27;20043;-78
2022/04/02 10:30:57;;;;;;;2.70;1.00;;;;;;;4.04;52.53;102136.16;5113104;28;20031;-78
2022/04/02 10:33:28;;;;;;;4.43;1.23;;;;;;;4.02;51.82;102140.44;5127268;28;20149;-78
2022/04/02 10:35:55;;;;;;;1.77;1.00;;;;;;;3.96;51.64;102135.19;5131872;28;20024;-78
2022/04/02 10:38:33;;;;;;;3.05;0.82;;;;;;;3.98;50.81;102143.88;5104089;28;20181;-78
2022/04/02 10:41:07;;;;;;;2.13;0.93;;;;;;;4.05;51.46;102131.81;5110001;28;20049;-78
2022/04/02 10:43:44;;;;;;;1.83;1.08;;;;;;;4.19;50.93;102135.38;5110164;28;20052;-78
2022/04/02 10:46:09;;;;;;;1.92;1.08;;;;;;;4.13;50.10;102132.75;5123275;28;20024;-78
2022/04/02 10:49:05;;;;;;;3.50;1.15;;;;;;;4.08;49.69;102138.78;5122864;28;20051;-78
2022/04/02 10:51:32;;;;;;;2.72;1.10;;;;;;;4.06;50.80;102143.03;5126306;28;20051;-79
2022/04/02 10:54:06;;;;;;;1.45;1.10;;;;;;;4.07;51.23;102143.06;5113131;28;20048;-78
2022/04/02 10:56:45;;;;;;;2.05;1.10;;;;;;;4.04;51.56;102138.75;5123281;28;20046;-78
2022/04/02 10:59:13;;;;;;;3.47;1.05;;;;;;;4.04;51.65;102148.25;5110383;28;20095;-78
2022/04/02 11:01:44;;;;;;;2.33;1.00;;;;;;;4.03;52.98;102142.16;5124487;28;20044;-78
2022/04/02 11:04:26;;;;;;;3.55;1.25;;;;;;;4.05;52.13;102144.78;5114948;28;20047;-79
2022/04/02 11:06:51;;;;;;;2.55;1.10;;;;;;;4.09;53.12;102143.94;5122008;28;20035;-79
2022/04/02 11:09:36;;;;;;;3.47;1.27;;;;;;;4.08;53.91;102143.94;5097863;28;20031;-79
2022/04/02 11:12:15;;;;;;;2.00;1.40;;;;;;;4.15;55.38;102145.72;5116313;28;20043;-79
2022/04/02 11:14:49;;;;;;;3.42;1.30;;;;;;;4.27;55.15;102148.38;5112812;28;20023;-79
2022/04/02 11:17:38;;;;;;;1.95;1.23;;;;;;;4.47;54.88;102145.06;5128669;28;20027;-78
2022/04/02 11:20:09;;;;;;;2.25;0.98;;;;;;;4.61;55.10;102139.06;5105878;28;20094;-78
2022/04/02 11:23:02;;;;;;;1.85;1.05;;;;;;;4.67;53.09;102146.00;5124678;28;20056;-79
2022/04/02 11:25:36;;;;;;;3.85;1.33;;;;;;;4.75;52.55;102146.06;5110366;28;20065;-79
2022/04/02 11:28:05;;;;;;;1.23;1.00;;;;;;;4.73;52.64;102145.16;5102661;28;20024;-78
2022/04/02 11:30:33;;;;;;;2.40;1.02;;;;;;;4.76;52.57;102132.22;5127870;28;20019;-79
2022/04/02 11:33:24;;;;;;;3.00;1.00;;;;;;;4.76;50.85;102147.78;5133406;27;20034;-79
2022/04/02 11:35:58;;;;;;;3.42;1.50;;;;;;;4.70;50.62;102133.06;5103442;28;20096;-79
2022/04/02 11:38:30;;;;;;;1.92;1.20;;;;;;;4.68;50.59;102139.97;5126406;28;20038;-79
2022/04/02 11:41:11;;;;;;;4.45;1.20;;;;;;;4.72;50.55;102139.13;5124512;28;20036;-79
2022/04/02 11:43:41;;;;;;;2.38;1.20;;;;;;;4.81;51.18;102135.69;5126504;28;20307;-78
2022/04/02 11:46:09;;;;;;;3.35;1.13;;;;;;;4.82;50.33;102129.66;5116767;28;20024;-79
2022/04/02 11:48:59;;;;;;;2.10;1.20;;;;;;;4.85;48.97;102140.03;5107287;28;20104;-79
2022/04/02 11:51:33;;;;;;;2.05;1.00;;;;;;;4.90;48.45;102137.47;5104878;28;20031;-79
2022/04/02 11:54:08;;;;;;;2.05;1.10;;;;;;;4.95;49.21;102146.16;5107716;28;20027;-79